This site, now in its 15th season, is a labour of love and fun from one of Ottawa's most avid time trialists and number crunchers. It adheres to and is permitted by the laws of Canada, promotes the objectives of every bicycle club whose results are shown, and is donated free of charge by myself for your enjoyment and usage. If you would like results from series you ride in to be shown here, give me (celia@drmath.ca) a shout!


Index Page
ATT OTT WTT CFCTT VVVTT
Help resultformat:
Case-sensitive

OBC Open TT Series - 1998-Apr-10 (Good Friday) - 15km (Rockliffe Pkwy) (EvtFactor = 0.7207)

Weather (11:00): Mostly Cloudy. Temp.: 2.0°C, Humidity: 47%, DewPoint: -8.0°C, Wind: WNW 22km/h, Pressure: 100.13kPa, Visibility: 32.2km.
Weather (12:00): Mostly Cloudy. Temp.: 2.3°C, Humidity: 47%, DewPoint: -7.9°C, Wind: WNW 28km/h, Pressure: 100.14kPa, Visibility: 32.2km.
Weather (13:00): Mostly Cloudy. Temp.: 3.6°C, Humidity: 45%, DewPoint: -7.3°C, Wind: NW 20km/h, Pressure: 100.15kPa, Visibility: 32.2km.

Send photos with description (when/where/what) of yourself on or off of bike to celia@drmath.ca

 
 

BESTS?
 
1 Large, John OBC 21:20 42.188 1/97 VAM 1/20  
2 Datars, Paul  OBC 21:50 41.221 2/97 VBM 1/18  
3 Burge, Craig  WQW 22:36 39.823 3/97 VAM 2/20  
4 Stephenson, Jamie --- 22:48 39.474 4/97 SEM 1/13  
5 Campbell, Colin  OBC 23:04 39.017 5/97 VAM 3/20  
6 Hamilton, Peter OBC 23:09 38.877 6/97 VAM 4/20  
7 Plaunt, Peter OBC 23:13 38.765 7/97 SEM 2/13  
8 Ashcroft, Mike --- 23:23 38.489 8/97 VAM 5/20  
9 Zollinger, Martin --- 23:30 38.298 9/97 SEM 3/13  
10 MacDonald, Jason OBC 23:31 38.271 10/97 SEM 4/13  
11 Lewis, Ron OBC 23:40 38.028 11/97 VBM 2/18  
12 Burn, Colin OBC 23:56 37.604 12/97 CAM 1/2  
13 Smeaton, Drew --- 24:09 37.267 13/97 VAM 6/20  
14 Maertens, Eppo --- 24:15 37.113 14/97 VAM 7/20  
15 Dressler, Henry --- 24:20 36.986 15/97 VAM 8/20  
16 Bundza, Nick --- 24:23 36.910 16/97 VAM 9/20  
Harris, Glenn --- 24:23 36.910 16/97 SEM 5/13  
18 Lewis, John OBC 24:24 36.885 18/97 VAM 10/20  
19 Norman, Tim --- 24:28 36.785 19/97 VBM 3/18  
20 St-Amour, Pierre OBC 24:31 36.710 20/97 VBM 4/18  
21 Dawson, Michael OBC 24:41 36.462 21/97 SEM 6/13  
22 Sudac, Rick  OBC 24:55 36.120 22/97 VBM 5/18  
23 Basu, Ben  OBC 24:56 36.096 23/97 SEM 7/13  
24 Burdett, Avery  OBC 25:08 35.809 24/97 VCM 1/11  
25 Kealey, Sheila OBC 25:10 35.762 25/97 VAF 1/7  
26 Stuart, Tom --- 25:22 35.480 26/97 XXM 1/11  
27 Hunt, Marc --- 25:32 35.248 27/97 XXM 2/11  
28 Ellis, John OBC 25:33 35.225 28/97 SEM 8/13  
29 Barton, John OBC 25:35 35.179 29/97 VBM 6/18  
30 Crevier, Grégoire  OBC 25:40 35.065 30/97 VBM 7/18  
31 Delisle, Stephane --- 25:41 35.042 31/97 SEM 9/13  
Janusauskas, Vytas  OBC 25:41 35.042 31/97 VBM 8/18  
33 Douglas, Tamsin OBC 25:47 34.906 33/97 VAF 2/7  
34 Rokosh, Kevin OBC 25:49 34.861 34/97 VAM 11/20  
35 Weiser, Paul OBC 25:59 34.638 35/97 VCM 2/11  
36 Goulet, Fred --- 26:00 34.615 36/97 XXM 3/11  
37 Kuelz, Ron OBC 26:03 34.549 37/97 SEM 10/13  
38 James, Peter OBC 26:07 34.461 38/97 VBM 9/18  
39 Smeulders, Paul OBC 26:12 34.351 39/97 VAM 12/20  
40 Bourgeault, Rick OBC 26:13 34.329 40/97 VAM 13/20  
41 Teske, Michael OBC 26:16 34.264 41/97 VAM 14/20  
42 Burke, Michael --- 26:24 34.091 42/97 JUM 1/3  
43 Vasku, Herb OBC 26:26 34.048 43/97 VCM 3/11  
44 Phillips, Ron OBC 26:47 33.603 44/97 VCM 4/11  
45 Taggart, Doug OBC 26:50 33.540 45/97 VBM 10/18  
46 Imbrogno, Giorgio  OBC 26:57 33.395 46/97 VBM 11/18  
47 Balint, John OBC 27:08 33.170 47/97 VCM 5/11  
McInnis, Celia  OBC 27:08 33.170 47/97 VBF 1/3  
49 Gauthier, Renée --- 27:09 33.149 49/97 SEF 1/4  
50 Voetberg, Jeff --- 27:10 33.129 50/97 XXM 4/11  
51 Sanna, Alex --- 27:11 33.109 51/97 XXM 5/11  
52 Wong, Wai-Ben OBC 27:14 33.048 52/97 JUM 2/3  
53 Hall, David  OBC 27:19 32.947 53/97 VAM 15/20  
54 Bachman, Paul OBC 27:21 32.907 54/97 VAM 16/20  
55 Hickman, Lynda OBC 27:22 32.887 55/97 VBF 2/3  
Valiquette, Michel OBC 27:22 32.887 55/97 VAM 17/20  
57 Chedore, Paul OBC 27:25 32.827 57/97 SEM 11/13  
Knox, Stephen OBC 27:25 32.827 57/97 VBM 12/18  
59 Boileau, Greg OBC 27:27 32.787 59/97 SEM 12/13  
60 Lanos, Michael --- 27:30 32.727 60/97 XXM 6/11  
61 Roy, Nadja OBC 27:31 32.707 61/97 VAF 3/7  
62 Wennerwald, Henning OBC 27:34 32.648 62/97 VCM 6/11  
63 Wright, Eric OBC 27:38 32.569 63/97 VAM 18/20  
64 Aller, Mo OBC 27:50 32.335 64/97 VDM 1/3  
65 Campbell, Eric OBC 27:53 32.277 65/97 CAM 2/2  
66 MacPhail, Gavin --- 27:57 32.200 66/97 VAM 19/20  
67 Day, Lee-Ann --- 28:00 32.143 67/97 VAF 4/7  
68 Bachman, Mike OBC 28:10 31.953 68/97 VCM 7/11  
Génier, Martin --- 28:10 31.953 68/97 JUM 3/3  
70 Dassavski, John --- 28:24 31.690 70/97 XXM 7/11  
Hickman, Paula OBC 28:24 31.690 70/97 VBF 3/3  
72 Berthiaume, Alicia --- 28:29 31.597 72/97 SEF 2/4  
Slade, Lucy --- 28:29 31.597 72/97 XXF 1/1  
74 Caron, Vianney OBC 28:47 31.268 74/97 VBM 13/18  
75 Marshy, Nadia OBC 28:56 31.106 75/97 VAF 5/7  
76 Simpson, Bob OBC 29:00 31.034 76/97 VCM 8/11  
77 Neil, Bill --- 29:11 30.840 77/97 XXM 8/11  
78 Emery, Allen OBC 29:18 30.717 78/97 VDM 2/3  
79 Hurtubuise, Ray --- 29:19 30.699 79/97 VBM 14/18  
80 Duguay, Ann --- 29:29 30.526 80/97 VAF 6/7  
81 Brugger, Marcel OBC 29:35 30.423 81/97 VBM 15/18  
82 Reissner, Leslie OBC 29:45 30.252 82/97 VBM 16/18  
83 Won, Jason OBC 29:51 30.151 83/97 VAM 20/20  
84 McKenna, Perry OBC 30:07 29.884 84/97 VBM 17/18  
85 Marier, André OBC 30:13 29.785 85/97 VDM 3/3  
86 Dudley, David --- 30:22 29.638 86/97 XXM 9/11  
87 Pronovost, Antoine --- 30:30 29.508 87/97 XXM 10/11  
88 Campbell, Luc OBC 31:21 28.708 88/97 MIM 1/1  
89 Stein, Jack OBC 31:22 28.693 89/97 VCM 9/11  
90 Roy, Kathy --- 31:58 28.154 90/97 VAF 7/7  
91 Kuelz, Evan --- 32:18 27.864 91/97 XXM 11/11  
92 Morin, Nadja --- 32:29 27.707 92/97 SEF 3/4  
93 Pstross, Nick OBC 33:10 27.136 93/97 VCM 10/11  
94 Agulnik, Manny OBC 34:24 26.163 94/97 VCM 11/11  
95 Wong, Ed OBC 34:42 25.937 95/97 VBM 18/18  
96 Gagné, Caroline --- 34:53 25.800 96/97 SEF 4/4  
97 Perel, Fredd --- 35:02 25.690 97/97 SEM 13/13  
 
Average Speed of all of the above 97 finishes (1455km in 43:55:19):33.127
>>>Average of the Average Speeds for these 97 finishes33.489<<<
 

The number of data records shown above is 97
The server processing of your query took: 1 wallclock secs ( 0.15 usr + 0.07 sys = 0.22 CPU)

Thanks to our Helpers: Janet Capling, Denis Fairhead, Jim Glover, Jean-Yves Guenette, Bob Hicks, Sabrina Howe, Patrick Kelly, Monique Ménard, Bram Moerman, Heather Moquin, George Wilson.

     


  Apr 10 (Good Friday)  
May 5 (10km) May 7 May 12 May 12 (10km) May 14 May 19 May 19 (10km) May 21 May 26 May 26 (10km) May 28
Jun 2 Jun 2 Jun 4 Jun 9 Jun 9 Jun 11 Jun 16 Jun 16 Jun 18 Jun 23 Jun 23 Jun 24 (40km) Jun 25 Jun 30 Jun 30
Jul 2 Jul 7 Jul 7 Jul 9 Jul 12 (40km) Jul 14 Jul 14 Jul 16 Jul 21 Jul 21 Jul 23 Jul 28 Jul 28 Jul 30
Aug 4 Aug 4 Aug 6 Aug 9 (40km) Aug 11 Aug 11 Aug 13 Aug 18 Aug 18 Aug 20 (cancelled) Aug 25 Aug 25 (Invitational) Aug 27
Sep 1 Sep 3 Sep 8 Sep 10 Sep 13 (40km) Sep 17 Sep 24

OTT Rankings
Best       Best by category
WTT Rankings for OBC Members
5 Best 15km     5 Best 15km by category
OBC Member Best Three 15km Rankings
Overall     by category
OBC BAR Ranking
Overall     by category     Rider "Consistency-Graph"
ABC BAR Ranking
Overall     by category     Rider "Consistency-Graph"
Other years
TT Calculator All TT People All TT events
ABC Home VVV Home
CKAP GOLD MEDAL
Other Links

Please send your comments and suggestions to: Celia McInnis
Copyright © 1998-2011 Celia McInnis. All rights reserved. Links are welcomed.